Time;durP1;ratioP1;P1;durP2;ratioP2;P2;SDS_P1;SDS_P2;PMS_P1;PMS_P2;Temp;Humidity;BMP_temperature;BMP_pressure;BME280_temperature;BME280_humidity;BME280_pressure;Samples;Min_cycle;Max_cycle;Signal;HPM_P1;HPM_P2
2023/01/06 00:00:34;;;;;;;5.33;2.60;;;;;;;;;;5104520;28;20418;-95
2023/01/06 00:03:00;;;;;;;6.60;3.00;;;;;;;;;;5097635;28;20862;-95
2023/01/06 00:05:28;;;;;;;11.50;3.20;;;;;;;;;;5097758;28;20440;-95
2023/01/06 00:07:54;;;;;;;5.53;2.50;;;;;;;;;;5103592;28;20407;-94
2023/01/06 00:10:20;;;;;;;10.80;3.43;;;;;;;;;;5112810;28;20462;-94
2023/01/06 00:12:46;;;;;;;7.10;3.57;;;;;;;;;;5116879;28;20474;-95
2023/01/06 00:15:13;;;;;;;7.37;2.93;;;;;;;;;;5133207;28;20445;-92
2023/01/06 00:17:39;;;;;;;8.00;3.43;;;;;;;;;;5127244;28;20487;-86
2023/01/06 00:20:05;;;;;;;8.30;1.70;;;;;;;;;;5123757;28;20906;-87
2023/01/06 00:22:31;;;;;;;10.63;2.83;;;;;;;;;;5135730;28;20442;-91
2023/01/06 00:24:57;;;;;;;6.30;2.80;;;;;;;;;;5134444;28;20391;-96
2023/01/06 00:27:23;;;;;;;8.13;2.37;;;;;;;;;;5190556;22;20496;-86
2023/01/06 00:29:50;;;;;;;4.97;2.13;;;;;;;;;;5090591;28;20467;-96
2023/01/06 00:32:16;;;;;;;8.50;2.37;;;;;;;;;;5085272;28;20982;-92
2023/01/06 00:34:42;;;;;;;9.20;2.57;;;;;;;;;;5086193;28;20427;-86
2023/01/06 00:37:08;;;;;;;7.30;2.37;;;;;;;;;;5091312;28;20452;-87
2023/01/06 00:39:34;;;;;;;6.30;2.23;;;;;;;;;;5086769;28;20406;-90
2023/01/06 00:42:03;;;;;;;6.97;2.43;;;;;;;;;;5091964;28;20405;-85
2023/01/06 00:44:30;;;;;;;4.83;2.20;;;;;;;;;;5088929;28;20411;-86
2023/01/06 00:46:56;;;;;;;4.63;1.70;;;;;;;;;;5089563;28;20406;-92
2023/01/06 00:49:21;;;;;;;7.40;2.70;;;;;;;;;;5087936;28;20417;-86
2023/01/06 00:51:48;;;;;;;7.70;2.20;;;;;;;;;;5084737;28;20472;-87
2023/01/06 00:54:14;;;;;;;9.67;2.97;;;;;;;;;;5090252;28;20408;-91
2023/01/06 00:56:41;;;;;;;5.63;2.50;;;;;;;;;;5091717;28;20410;-85
2023/01/06 00:59:07;;;;;;;4.07;1.80;;;;;;;;;;5091800;28;20409;-86
2023/01/06 01:01:34;;;;;;;4.63;2.70;;;;;;;;;;5091989;28;20457;-89
2023/01/06 01:04:00;;;;;;;4.30;3.03;;;;;;;;;;5092602;28;20414;-84
2023/01/06 01:06:26;;;;;;;10.27;3.20;;;;;;;;;;5096037;28;20467;-86
2023/01/06 01:08:53;;;;;;;3.53;2.00;;;;;;;;;;5091274;28;20393;-84
2023/01/06 01:14:03;;;;;;;4.40;2.60;;;;;;;;;;5119719;22;20503;-84
2023/01/06 01:16:29;;;;;;;6.93;3.63;;;;;;;;;;5111836;28;20424;-84
2023/01/06 01:18:58;;;;;;;6.43;2.90;;;;;;;;;;5105714;28;20525;-84
2023/01/06 01:21:24;;;;;;;6.23;2.60;;;;;;;;;;5108503;28;20400;-83
2023/01/06 01:23:50;;;;;;;6.30;3.20;;;;;;;;;;5113403;28;20415;-84
2023/01/06 01:26:16;;;;;;;5.60;2.30;;;;;;;;;;5112651;28;20488;-84
2023/01/06 01:28:42;;;;;;;8.17;3.53;;;;;;;;;;5152083;22;20478;-84
2023/01/06 01:31:08;;;;;;;14.43;4.93;;;;;;;;;;5135868;27;20481;-85
2023/01/06 01:33:34;;;;;;;8.47;3.17;;;;;;;;;;5129888;27;20436;-82
2023/01/06 01:36:06;;;;;;;10.10;2.73;;;;;;;;;;5145971;27;20419;-82
2023/01/06 01:38:32;;;;;;;7.57;3.23;;;;;;;;;;5141648;27;20422;-82
2023/01/06 01:40:58;;;;;;;4.47;2.67;;;;;;;;;;5152105;27;20406;-82
2023/01/06 01:43:24;;;;;;;9.13;3.97;;;;;;;;;;5130683;27;20411;-82
2023/01/06 01:45:52;;;;;;;11.13;3.17;;;;;;;;;;5127367;27;20423;-82
2023/01/06 01:48:29;;;;;;;6.10;4.00;;;;;;;;;;5130096;27;20413;-82
2023/01/06 01:50:56;;;;;;;6.50;4.17;;;;;;;;;;5133642;27;20629;-82
2023/01/06 01:53:25;;;;;;;12.73;3.70;;;;;;;;;;5131850;27;20497;-81
2023/01/06 01:55:55;;;;;;;8.07;2.87;;;;;;;;;;5150376;27;20432;-82
2023/01/06 01:58:24;;;;;;;8.77;4.70;;;;;;;;;;5149198;27;20442;-81
2023/01/06 02:00:50;;;;;;;9.70;3.80;;;;;;;;;;5128497;27;20469;-82
2023/01/06 02:03:20;;;;;;;8.87;4.20;;;;;;;;;;5129449;27;20398;-82
2023/01/06 02:05:49;;;;;;;10.23;5.10;;;;;;;;;;5142378;27;20414;-81
2023/01/06 02:08:23;;;;;;;8.43;5.07;;;;;;;;;;5132005;27;20414;-82
2023/01/06 02:10:49;;;;;;;6.67;4.87;;;;;;;;;;5131076;27;20493;-82
2023/01/06 02:13:16;;;;;;;7.27;4.00;;;;;;;;;;5126152;27;20441;-82
2023/01/06 02:15:42;;;;;;;6.30;4.60;;;;;;;;;;5133705;27;20432;-82
2023/01/06 02:18:08;;;;;;;7.97;4.10;;;;;;;;;;5153029;27;20397;-82
2023/01/06 02:20:44;;;;;;;8.53;4.70;;;;;;;;;;5127871;22;20491;-84
2023/01/06 02:23:30;;;;;;;7.20;4.27;;;;;;;;;;5123183;22;20233;-84
2023/01/06 02:26:14;;;;;;;8.13;4.50;;;;;;;;;;5087504;28;21011;-85
2023/01/06 02:28:59;;;;;;;6.87;4.67;;;;;;;;;;5093888;28;20408;-94
2023/01/06 02:31:32;;;;;;;11.80;5.30;;;;;;;;;;5075979;28;20480;-93
2023/01/06 02:33:58;;;;;;;8.70;4.77;;;;;;;;;;5093902;28;20407;-93
2023/01/06 02:36:43;;;;;;;8.10;5.73;;;;;;;;;;5093948;28;20490;-89
2023/01/06 02:39:28;;;;;;;14.53;5.60;;;;;;;;;;5093936;28;20158;-86
2023/01/06 02:42:21;;;;;;;8.70;6.20;;;;;;;;;;5076289;28;20425;-85
2023/01/06 02:45:00;;;;;;;9.37;4.60;;;;;;;;;;5094129;28;20565;-92
2023/01/06 02:47:45;;;;;;;14.63;6.40;;;;;;;;;;5093992;28;20749;-95
2023/01/06 02:50:33;;;;;;;9.27;5.80;;;;;;;;;;5075752;28;20451;-85
2023/01/06 02:53:14;;;;;;;10.20;5.07;;;;;;;;;;5093555;28;20415;-85
2023/01/06 02:55:48;;;;;;;10.20;6.23;;;;;;;;;;5096344;28;20404;-95
2023/01/06 02:58:17;;;;;;;10.17;6.00;;;;;;;;;;5097918;28;20408;-95
2023/01/06 03:00:45;;;;;;;12.30;5.70;;;;;;;;;;5097965;28;20499;-94
2023/01/06 03:03:14;;;;;;;10.23;5.60;;;;;;;;;;5102751;28;20766;-96
2023/01/06 03:05:41;;;;;;;10.73;5.80;;;;;;;;;;5088210;28;20402;-96
2023/01/06 03:08:11;;;;;;;9.20;5.03;;;;;;;;;;5102239;28;20796;-85
2023/01/06 03:10:38;;;;;;;9.53;5.10;;;;;;;;;;5082753;28;20500;-93
2023/01/06 03:13:06;;;;;;;9.93;5.47;;;;;;;;;;5097512;28;20519;-81
2023/01/06 03:15:32;;;;;;;12.13;5.83;;;;;;;;;;5098081;28;20399;-90
2023/01/06 03:17:58;;;;;;;11.63;6.00;;;;;;;;;;5079767;28;20410;-94
2023/01/06 03:20:24;;;;;;;9.60;5.53;;;;;;;;;;5079841;28;20911;-95
2023/01/06 03:22:50;;;;;;;7.20;4.30;;;;;;;;;;5086651;28;20473;-95
2023/01/06 03:25:16;;;;;;;9.93;5.83;;;;;;;;;;5088795;28;20439;-96
2023/01/06 03:27:42;;;;;;;9.53;5.17;;;;;;;;;;5105307;28;20803;-95
2023/01/06 03:30:09;;;;;;;9.70;5.60;;;;;;;;;;5107664;28;20455;-93
2023/01/06 03:32:38;;;;;;;13.07;5.27;;;;;;;;;;5108714;28;20445;-95
2023/01/06 03:35:09;;;;;;;9.50;4.03;;;;;;;;;;5084384;28;20440;-90
2023/01/06 03:37:44;;;;;;;7.77;5.10;;;;;;;;;;5104650;28;20395;-84
2023/01/06 03:40:25;;;;;;;10.87;5.60;;;;;;;;;;5108473;28;20387;-96
2023/01/06 03:43:11;;;;;;;12.40;6.47;;;;;;;;;;5101575;28;20528;-95
2023/01/06 03:45:41;;;;;;;10.97;5.10;;;;;;;;;;5085675;28;20418;-86
2023/01/06 03:48:27;;;;;;;10.53;5.87;;;;;;;;;;5091089;28;20470;-89
2023/01/06 03:51:04;;;;;;;8.70;5.33;;;;;;;;;;5086817;28;21009;-93
2023/01/06 03:53:37;;;;;;;11.23;5.40;;;;;;;;;;5105341;28;20440;-94
2023/01/06 03:56:18;;;;;;;10.17;4.80;;;;;;;;;;5095313;28;20426;-85
2023/01/06 03:58:53;;;;;;;9.20;6.03;;;;;;;;;;5094511;28;20914;-86
2023/01/06 04:01:19;;;;;;;8.50;4.20;;;;;;;;;;5106889;28;20796;-88
2023/01/06 04:03:46;;;;;;;8.63;5.30;;;;;;;;;;5085802;28;20429;-93
2023/01/06 04:06:12;;;;;;;10.50;5.50;;;;;;;;;;5085138;28;20413;-95
2023/01/06 04:08:38;;;;;;;13.90;7.10;;;;;;;;;;5078915;28;20421;-95
2023/01/06 04:11:04;;;;;;;9.50;5.80;;;;;;;;;;5078722;28;20487;-85
2023/01/06 04:13:30;;;;;;;10.67;5.00;;;;;;;;;;5078775;28;20412;-93
2023/01/06 04:15:56;;;;;;;9.53;4.93;;;;;;;;;;5097681;28;20420;-93
2023/01/06 04:18:22;;;;;;;10.20;5.60;;;;;;;;;;5079054;28;20176;-93
2023/01/06 04:20:48;;;;;;;10.90;5.80;;;;;;;;;;5078222;28;20414;-93
2023/01/06 04:23:13;;;;;;;13.57;6.03;;;;;;;;;;5096584;28;20452;-89
2023/01/06 04:25:39;;;;;;;8.77;5.00;;;;;;;;;;5080595;28;20410;-96
2023/01/06 04:28:05;;;;;;;8.63;5.73;;;;;;;;;;5080013;28;20422;-96
2023/01/06 04:30:31;;;;;;;8.70;5.80;;;;;;;;;;5079124;28;20520;-93
2023/01/06 04:32:57;;;;;;;10.00;5.77;;;;;;;;;;5102066;28;20518;-94
2023/01/06 04:35:23;;;;;;;12.77;5.77;;;;;;;;;;5085990;28;20809;-87
2023/01/06 04:37:49;;;;;;;13.50;5.93;;;;;;;;;;5098213;28;20903;-96
2023/01/06 04:40:15;;;;;;;11.47;6.67;;;;;;;;;;5080164;28;20816;-86
2023/01/06 04:45:26;;;;;;;14.67;7.43;;;;;;;;;;5098333;28;20414;-86
2023/01/06 04:47:52;;;;;;;11.80;5.80;;;;;;;;;;5082094;28;20426;-94
2023/01/06 04:50:18;;;;;;;12.77;6.07;;;;;;;;;;5082966;28;20483;-88
2023/01/06 04:52:44;;;;;;;12.33;6.10;;;;;;;;;;5081815;28;20463;-90
2023/01/06 04:55:10;;;;;;;12.87;5.67;;;;;;;;;;5092746;28;20434;-94
2023/01/06 04:57:36;;;;;;;12.73;6.07;;;;;;;;;;5325197;23;20495;-83
2023/01/06 05:00:02;;;;;;;10.70;5.77;;;;;;;;;;5131101;27;20421;-85
2023/01/06 05:02:28;;;;;;;11.37;5.53;;;;;;;;;;5131602;22;20487;-85
2023/01/06 05:04:54;;;;;;;15.53;7.90;;;;;;;;;;5121416;22;20509;-86
2023/01/06 05:07:20;;;;;;;10.30;6.03;;;;;;;;;;5132932;27;20437;-85
2023/01/06 05:09:49;;;;;;;12.83;7.33;;;;;;;;;;5138656;22;20492;-86
2023/01/06 05:12:14;;;;;;;12.23;7.03;;;;;;;;;;5126142;22;20488;-87
2023/01/06 05:14:41;;;;;;;13.37;6.70;;;;;;;;;;5093992;28;20414;-85
2023/01/06 05:17:06;;;;;;;12.30;7.33;;;;;;;;;;5091444;28;20819;-87
2023/01/06 05:19:32;;;;;;;16.20;8.37;;;;;;;;;;5139783;22;20468;-85
2023/01/06 05:21:58;;;;;;;16.40;8.37;;;;;;;;;;5128380;28;20418;-85
2023/01/06 05:24:24;;;;;;;11.73;6.97;;;;;;;;;;5137210;22;20497;-85
2023/01/06 05:26:50;;;;;;;13.80;7.30;;;;;;;;;;5117698;28;20428;-86
2023/01/06 05:29:16;;;;;;;16.07;7.00;;;;;;;;;;5137256;22;20834;-86
2023/01/06 05:31:42;;;;;;;12.70;6.97;;;;;;;;;;5101292;28;21050;-86
2023/01/06 05:34:09;;;;;;;11.43;6.77;;;;;;;;;;5118823;28;20502;-93
2023/01/06 05:36:35;;;;;;;14.43;8.00;;;;;;;;;;5115382;28;20446;-96
2023/01/06 05:39:01;;;;;;;12.27;7.50;;;;;;;;;;5097188;28;20415;-95
2023/01/06 05:41:27;;;;;;;16.67;7.17;;;;;;;;;;5097807;28;20233;-96
2023/01/06 05:43:53;;;;;;;15.17;7.27;;;;;;;;;;5114934;28;20430;-95
2023/01/06 05:46:19;;;;;;;11.57;7.27;;;;;;;;;;5097201;28;20512;-86
2023/01/06 05:48:45;;;;;;;16.27;9.00;;;;;;;;;;5115619;28;20503;-94
2023/01/06 05:51:12;;;;;;;10.03;6.77;;;;;;;;;;5096991;28;20828;-94
2023/01/06 05:53:40;;;;;;;13.37;8.90;;;;;;;;;;5115784;28;20414;-83
2023/01/06 05:56:06;;;;;;;15.83;8.13;;;;;;;;;;5116312;28;20495;-90
2023/01/06 05:58:33;;;;;;;16.10;7.50;;;;;;;;;;5099460;28;20433;-86
2023/01/06 06:00:59;;;;;;;15.93;8.07;;;;;;;;;;5118383;28;20401;-87
2023/01/06 06:03:25;;;;;;;16.00;9.37;;;;;;;;;;5116978;28;20412;-89
2023/01/06 06:05:57;;;;;;;10.67;7.23;;;;;;;;;;5115727;28;20433;-90
2023/01/06 06:08:25;;;;;;;11.43;8.83;;;;;;;;;;5097617;28;20485;-85
2023/01/06 06:10:51;;;;;;;11.70;7.77;;;;;;;;;;5115694;28;20455;-93
2023/01/06 06:13:17;;;;;;;11.63;8.30;;;;;;;;;;5096329;28;20425;-90
2023/01/06 06:15:43;;;;;;;13.90;8.97;;;;;;;;;;5114827;28;20173;-93
2023/01/06 06:18:09;;;;;;;16.63;8.27;;;;;;;;;;5114595;28;20624;-84
2023/01/06 06:20:35;;;;;;;14.07;8.10;;;;;;;;;;5096090;28;20416;-84
2023/01/06 06:23:03;;;;;;;14.10;9.27;;;;;;;;;;5114468;28;20418;-93
2023/01/06 06:25:29;;;;;;;14.97;8.80;;;;;;;;;;5096741;28;20776;-94
2023/01/06 06:27:58;;;;;;;17.60;9.13;;;;;;;;;;5097228;28;20404;-87
2023/01/06 06:30:25;;;;;;;15.50;9.20;;;;;;;;;;5113550;28;20414;-91
2023/01/06 06:32:50;;;;;;;14.40;8.83;;;;;;;;;;5115887;28;20414;-87
2023/01/06 06:35:16;;;;;;;14.60;8.70;;;;;;;;;;5121011;28;20404;-82
2023/01/06 06:37:42;;;;;;;16.10;8.80;;;;;;;;;;5120582;28;21008;-82
2023/01/06 06:40:08;;;;;;;15.27;9.17;;;;;;;;;;5100731;28;20812;-82
2023/01/06 06:42:34;;;;;;;18.40;9.80;;;;;;;;;;5116010;28;20206;-96
2023/01/06 06:45:00;;;;;;;14.83;8.63;;;;;;;;;;5133972;28;20396;-85
2023/01/06 06:47:26;;;;;;;16.63;9.57;;;;;;;;;;5112365;28;20434;-86
2023/01/06 06:49:53;;;;;;;12.37;7.93;;;;;;;;;;5120248;28;20437;-93
2023/01/06 06:52:19;;;;;;;20.20;8.80;;;;;;;;;;5104372;28;20479;-91
2023/01/06 06:54:45;;;;;;;19.60;9.80;;;;;;;;;;5103881;28;20450;-96
2023/01/06 06:57:10;;;;;;;16.67;10.00;;;;;;;;;;5106397;28;20418;-92
2023/01/06 06:59:36;;;;;;;14.27;9.43;;;;;;;;;;5112914;28;20411;-88
2023/01/06 07:02:04;;;;;;;14.17;8.83;;;;;;;;;;5188285;22;20811;-95
2023/01/06 07:04:32;;;;;;;12.80;8.60;;;;;;;;;;5108122;28;20513;-94
2023/01/06 07:06:58;;;;;;;18.27;9.93;;;;;;;;;;5113200;28;20453;-88
2023/01/06 07:09:24;;;;;;;13.13;8.50;;;;;;;;;;5112160;28;20423;-90
2023/01/06 07:11:50;;;;;;;18.30;10.00;;;;;;;;;;5109432;28;20461;-92
2023/01/06 07:14:19;;;;;;;14.23;8.60;;;;;;;;;;5108038;28;20412;-94
2023/01/06 07:16:45;;;;;;;20.93;9.87;;;;;;;;;;5109618;28;20419;-96
2023/01/06 07:19:11;;;;;;;14.90;9.50;;;;;;;;;;5110639;28;20407;-94
2023/01/06 07:21:37;;;;;;;16.80;10.77;;;;;;;;;;5128623;28;20431;-95
2023/01/06 07:24:03;;;;;;;15.90;9.27;;;;;;;;;;5111075;28;20416;-96
2023/01/06 07:26:29;;;;;;;13.37;8.73;;;;;;;;;;5111681;28;20855;-88
2023/01/06 07:28:55;;;;;;;15.87;9.47;;;;;;;;;;5111386;28;20458;-96
2023/01/06 07:31:21;;;;;;;17.67;10.13;;;;;;;;;;5110420;28;20994;-96
2023/01/06 07:33:47;;;;;;;13.57;9.07;;;;;;;;;;5108712;28;20932;-91
2023/01/06 07:36:13;;;;;;;19.93;9.20;;;;;;;;;;5112037;28;20849;-94
2023/01/06 07:38:39;;;;;;;15.37;9.83;;;;;;;;;;5110751;28;20397;-94
2023/01/06 07:41:05;;;;;;;13.20;9.00;;;;;;;;;;5111061;28;20422;-96
2023/01/06 07:43:32;;;;;;;17.03;9.83;;;;;;;;;;5112287;28;20490;-93
2023/01/06 07:46:13;;;;;;;13.70;8.07;;;;;;;;;;5129559;28;20498;-93
2023/01/06 07:48:38;;;;;;;15.23;9.17;;;;;;;;;;5106760;28;20418;-92
2023/01/06 07:51:05;;;;;;;16.33;9.83;;;;;;;;;;5127461;28;20465;-95
2023/01/06 07:53:31;;;;;;;16.97;8.90;;;;;;;;;;5107731;28;20422;-94
2023/01/06 07:55:58;;;;;;;12.67;8.30;;;;;;;;;;5125900;28;20403;-87
2023/01/06 07:58:24;;;;;;;14.77;8.10;;;;;;;;;;5104540;28;20409;-90
2023/01/06 08:00:50;;;;;;;16.80;7.63;;;;;;;;;;5102605;28;20403;-91
2023/01/06 08:03:16;;;;;;;14.50;8.40;;;;;;;;;;5105808;28;20469;-93
2023/01/06 08:05:42;;;;;;;16.93;9.30;;;;;;;;;;5107045;28;20504;-96
2023/01/06 08:08:08;;;;;;;15.10;8.57;;;;;;;;;;5113852;28;20917;-92
2023/01/06 08:10:34;;;;;;;15.40;9.27;;;;;;;;;;5118918;28;20521;-89
2023/01/06 08:13:01;;;;;;;14.10;9.10;;;;;;;;;;5117049;28;20481;-89
2023/01/06 08:15:26;;;;;;;11.50;7.90;;;;;;;;;;5119937;28;20449;-85
2023/01/06 08:17:53;;;;;;;16.30;7.80;;;;;;;;;;5120802;28;20401;-85
2023/01/06 08:20:19;;;;;;;14.60;8.60;;;;;;;;;;5123146;28;20420;-85
2023/01/06 08:22:45;;;;;;;11.27;7.70;;;;;;;;;;5141858;22;20549;-85
2023/01/06 08:25:11;;;;;;;13.90;7.90;;;;;;;;;;5143015;22;20492;-88
2023/01/06 08:27:37;;;;;;;9.57;5.87;;;;;;;;;;5113802;28;20484;-89
2023/01/06 08:30:03;;;;;;;11.70;7.93;;;;;;;;;;5113920;28;20444;-88
2023/01/06 08:32:29;;;;;;;10.83;7.83;;;;;;;;;;5114774;28;20472;-84
2023/01/06 08:34:55;;;;;;;8.70;6.47;;;;;;;;;;5112195;28;20438;-86
2023/01/06 08:37:22;;;;;;;9.77;6.73;;;;;;;;;;5117953;28;20396;-86
2023/01/06 08:39:48;;;;;;;10.83;7.47;;;;;;;;;;5095614;28;20602;-96
2023/01/06 08:42:14;;;;;;;10.10;7.10;;;;;;;;;;5101090;22;20949;-89
2023/01/06 08:44:40;;;;;;;10.10;6.97;;;;;;;;;;5088163;28;20530;-87
2023/01/06 08:47:06;;;;;;;10.13;6.90;;;;;;;;;;5075320;28;20422;-88
2023/01/06 08:49:31;;;;;;;8.97;6.93;;;;;;;;;;5075150;28;20417;-90
2023/01/06 08:51:57;;;;;;;8.63;6.00;;;;;;;;;;5073769;28;20484;-87
2023/01/06 08:54:23;;;;;;;8.90;6.87;;;;;;;;;;5073430;28;20986;-91
2023/01/06 08:56:49;;;;;;;9.20;6.43;;;;;;;;;;5073915;28;20476;-90
2023/01/06 08:59:16;;;;;;;8.50;4.57;;;;;;;;;;5074547;28;20252;-95
2023/01/06 09:01:42;;;;;;;8.00;5.40;;;;;;;;;;5074918;28;20416;-89
2023/01/06 09:04:09;;;;;;;8.33;6.27;;;;;;;;;;5074162;28;20781;-92
2023/01/06 09:06:35;;;;;;;5.87;4.30;;;;;;;;;;5074081;28;20525;-87
2023/01/06 09:09:02;;;;;;;10.17;5.30;;;;;;;;;;5074909;28;20412;-96
2023/01/06 09:11:28;;;;;;;7.27;4.73;;;;;;;;;;5084838;28;20474;-94
2023/01/06 09:13:54;;;;;;;6.73;4.43;;;;;;;;;;5094136;28;20774;-91
2023/01/06 09:16:20;;;;;;;4.47;3.27;;;;;;;;;;5076931;28;20415;-93
2023/01/06 09:18:50;;;;;;;5.60;4.77;;;;;;;;;;5075399;28;20450;-93
2023/01/06 09:21:18;;;;;;;6.07;4.50;;;;;;;;;;5074535;28;20509;-92
2023/01/06 09:23:44;;;;;;;6.30;3.67;;;;;;;;;;5075180;28;20416;-93
2023/01/06 09:26:10;;;;;;;11.13;3.77;;;;;;;;;;5074455;28;20427;-95
2023/01/06 09:28:36;;;;;;;5.23;2.97;;;;;;;;;;5075968;28;20422;-95
2023/01/06 09:31:02;;;;;;;4.30;3.13;;;;;;;;;;5079178;28;20443;-86
2023/01/06 09:33:28;;;;;;;5.63;3.57;;;;;;;;;;5090733;28;20506;-91
2023/01/06 09:36:14;;;;;;;4.20;2.67;;;;;;;;;;5057375;28;20499;-95
2023/01/06 09:38:43;;;;;;;10.00;3.27;;;;;;;;;;5074246;28;20414;-95
2023/01/06 09:41:27;;;;;;;4.00;2.40;;;;;;;;;;5073580;28;20509;-93
2023/01/06 09:44:08;;;;;;;3.13;2.03;;;;;;;;;;5075173;28;20507;-94
2023/01/06 09:46:38;;;;;;;4.33;3.27;;;;;;;;;;5075014;28;20429;-96
2023/01/06 09:49:24;;;;;;;3.57;2.70;;;;;;;;;;5074785;28;20410;-93
2023/01/06 09:51:51;;;;;;;5.10;2.20;;;;;;;;;;5084894;28;20463;-92
2023/01/06 09:54:22;;;;;;;2.87;2.27;;;;;;;;;;5099343;28;20438;-92
2023/01/06 09:56:53;;;;;;;2.43;1.77;;;;;;;;;;5087778;28;20416;-93
2023/01/06 09:59:28;;;;;;;4.23;1.90;;;;;;;;;;5057386;28;21065;-92
2023/01/06 10:01:58;;;;;;;2.43;1.47;;;;;;;;;;5073715;28;20411;-95
2023/01/06 10:04:25;;;;;;;2.23;1.17;;;;;;;;;;5073152;28;20418;-94
2023/01/06 10:07:05;;;;;;;2.47;1.53;;;;;;;;;;5076043;28;20403;-96
2023/01/06 10:09:42;;;;;;;4.40;1.87;;;;;;;;;;5075455;28;20476;-95
2023/01/06 10:12:27;;;;;;;4.37;1.70;;;;;;;;;;5073325;28;20470;-96
2023/01/06 10:15:15;;;;;;;5.87;2.00;;;;;;;;;;5074522;28;20409;-95
2023/01/06 10:17:44;;;;;;;2.50;1.37;;;;;;;;;;5074241;28;20417;-96
2023/01/06 10:20:32;;;;;;;3.13;1.73;;;;;;;;;;5088761;28;20419;-96
2023/01/06 10:23:13;;;;;;;2.40;1.47;;;;;;;;;;5095522;28;20415;-95
2023/01/06 10:25:41;;;;;;;3.47;1.80;;;;;;;;;;5094106;28;20440;-93
2023/01/06 10:28:28;;;;;;;3.53;1.53;;;;;;;;;;5093112;28;20500;-94
2023/01/06 10:30:55;;;;;;;3.17;2.07;;;;;;;;;;5093789;28;20871;-95
2023/01/06 10:33:30;;;;;;;4.73;2.50;;;;;;;;;;5093792;28;20510;-95
2023/01/06 10:35:56;;;;;;;4.93;2.27;;;;;;;;;;5093806;28;20834;-94
2023/01/06 10:38:24;;;;;;;4.87;2.27;;;;;;;;;;5093677;28;20425;-93
2023/01/06 10:40:51;;;;;;;2.20;1.33;;;;;;;;;;5094711;28;20876;-94
2023/01/06 10:43:21;;;;;;;2.80;1.70;;;;;;;;;;5093561;28;20466;-96
2023/01/06 10:45:47;;;;;;;2.47;2.00;;;;;;;;;;5095145;28;20508;-96
2023/01/06 10:48:15;;;;;;;2.40;1.60;;;;;;;;;;5095220;28;20425;-95
2023/01/06 10:50:41;;;;;;;5.67;2.00;;;;;;;;;;5094173;28;20458;-96
2023/01/06 10:53:07;;;;;;;3.73;1.33;;;;;;;;;;5094653;28;20481;-96
2023/01/06 10:55:35;;;;;;;5.03;2.10;;;;;;;;;;5095200;28;20403;-95
2023/01/06 10:58:06;;;;;;;3.10;1.60;;;;;;;;;;5093919;28;20427;-96
2023/01/06 11:00:32;;;;;;;2.70;2.17;;;;;;;;;;5102730;28;20396;-87
2023/01/06 11:03:05;;;;;;;2.80;1.83;;;;;;;;;;5098339;28;20415;-93
2023/01/06 11:05:32;;;;;;;2.33;1.63;;;;;;;;;;5097229;28;20919;-91
2023/01/06 11:08:03;;;;;;;2.00;1.50;;;;;;;;;;5095996;28;20559;-94
2023/01/06 11:10:37;;;;;;;2.50;1.50;;;;;;;;;;5096560;28;20471;-95
2023/01/06 11:13:05;;;;;;;3.97;0.80;;;;;;;;;;5096345;28;20434;-94
2023/01/06 11:15:35;;;;;;;3.40;1.70;;;;;;;;;;5099034;28;20414;-92
2023/01/06 11:18:02;;;;;;;2.90;2.00;;;;;;;;;;5102724;28;20803;-95
2023/01/06 11:20:31;;;;;;;1.80;1.13;;;;;;;;;;5093374;28;20399;-93
2023/01/06 11:23:11;;;;;;;2.27;1.43;;;;;;;;;;5078862;28;20411;-94
2023/01/06 11:25:38;;;;;;;3.07;1.57;;;;;;;;;;5083194;28;20492;-95
2023/01/06 11:28:20;;;;;;;3.27;1.30;;;;;;;;;;5087651;28;20416;-93
2023/01/06 11:30:46;;;;;;;2.17;1.30;;;;;;;;;;5066453;28;20495;-96
2023/01/06 11:33:17;;;;;;;3.30;1.60;;;;;;;;;;5083827;28;20469;-96
2023/01/06 11:35:43;;;;;;;1.90;1.23;;;;;;;;;;5081372;28;20394;-95
2023/01/06 11:38:12;;;;;;;1.23;0.90;;;;;;;;;;5078012;28;20774;-93
2023/01/06 11:40:39;;;;;;;1.70;1.07;;;;;;;;;;5082932;28;20772;-86
2023/01/06 11:43:26;;;;;;;1.10;0.67;;;;;;;;;;5099373;28;20552;-86
2023/01/06 11:45:56;;;;;;;2.90;0.47;;;;;;;;;;5097161;28;20806;-89
2023/01/06 11:48:25;;;;;;;0.80;0.50;;;;;;;;;;5098854;28;20422;-95
2023/01/06 11:50:56;;;;;;;2.00;0.53;;;;;;;;;;5091064;28;20465;-88
2023/01/06 11:53:43;;;;;;;1.40;0.60;;;;;;;;;;5080049;28;20512;-93
2023/01/06 11:56:17;;;;;;;0.80;0.30;;;;;;;;;;5090532;28;20523;-90
2023/01/06 11:59:03;;;;;;;2.97;0.50;;;;;;;;;;5097791;28;20410;-86
2023/01/06 12:01:37;;;;;;;5.00;0.30;;;;;;;;;;5109394;28;20403;-88
2023/01/06 12:04:12;;;;;;;0.50;0.40;;;;;;;;;;5109359;28;20434;-96
2023/01/06 12:06:41;;;;;;;1.73;0.27;;;;;;;;;;5107119;28;20411;-96
2023/01/06 12:09:22;;;;;;;0.30;0.20;;;;;;;;;;5087585;28;20915;-94
2023/01/06 12:11:50;;;;;;;1.63;0.20;;;;;;;;;;5100310;28;20462;-92
2023/01/06 12:14:28;;;;;;;0.30;0.20;;;;;;;;;;5084450;28;20554;-95
2023/01/06 12:17:06;;;;;;;4.67;0.20;;;;;;;;;;5082535;28;20933;-93
2023/01/06 12:19:49;;;;;;;0.50;0.20;;;;;;;;;;5085093;28;21103;-96
2023/01/06 12:22:26;;;;;;;2.00;0.20;;;;;;;;;;5084232;28;20585;-85
2023/01/06 12:24:53;;;;;;;0.70;0.30;;;;;;;;;;5086411;28;20410;-91
2023/01/06 12:27:23;;;;;;;1.17;0.20;;;;;;;;;;5085827;28;20774;-85
2023/01/06 12:29:52;;;;;;;3.03;0.20;;;;;;;;;;5099913;28;20419;-85
2023/01/06 12:32:21;;;;;;;1.30;0.27;;;;;;;;;;5120876;28;20473;-85
2023/01/06 12:34:49;;;;;;;2.00;0.23;;;;;;;;;;5118976;23;20565;-87
2023/01/06 12:37:31;;;;;;;1.57;0.30;;;;;;;;;;5141254;27;20408;-87
2023/01/06 12:40:11;;;;;;;2.97;0.57;;;;;;;;;;5102628;28;20429;-85
2023/01/06 12:42:57;;;;;;;0.70;0.20;;;;;;;;;;5110134;28;20441;-86
2023/01/06 12:45:36;;;;;;;1.80;0.50;;;;;;;;;;5079582;28;20441;-88
2023/01/06 12:48:05;;;;;;;1.70;0.53;;;;;;;;;;5118174;28;20429;-86
2023/01/06 12:50:52;;;;;;;4.77;0.33;;;;;;;;;;5139233;27;20378;-87
2023/01/06 12:53:18;;;;;;;0.80;0.20;;;;;;;;;;5105957;28;20475;-85
2023/01/06 12:55:55;;;;;;;3.60;0.33;;;;;;;;;;5128163;27;20394;-86
2023/01/06 12:58:28;;;;;;;4.47;0.63;;;;;;;;;;5140803;27;20430;-85
2023/01/06 13:01:11;;;;;;;1.93;0.20;;;;;;;;;;5123609;27;20403;-84
2023/01/06 13:03:52;;;;;;;2.80;0.37;;;;;;;;;;5140381;27;20454;-86
2023/01/06 13:06:33;;;;;;;4.10;0.50;;;;;;;;;;5123112;27;20394;-86
2023/01/06 13:09:06;;;;;;;2.00;0.47;;;;;;;;;;5119058;28;20503;-86
2023/01/06 13:11:52;;;;;;;3.00;0.20;;;;;;;;;;5138424;27;20473;-85
2023/01/06 13:14:28;;;;;;;1.27;0.20;;;;;;;;;;5120420;28;20421;-92
2023/01/06 13:17:03;;;;;;;3.40;0.23;;;;;;;;;;5126967;28;20411;-84
2023/01/06 13:19:45;;;;;;;2.27;0.87;;;;;;;;;;5119591;28;20405;-86
2023/01/06 13:22:15;;;;;;;3.67;0.50;;;;;;;;;;5102396;28;20414;-86
2023/01/06 13:25:01;;;;;;;0.93;0.50;;;;;;;;;;5119490;28;20436;-85
2023/01/06 13:27:44;;;;;;;7.53;0.80;;;;;;;;;;5119409;28;20387;-85
2023/01/06 13:30:33;;;;;;;1.27;0.30;;;;;;;;;;5101512;28;20494;-85
2023/01/06 13:33:15;;;;;;;3.63;0.20;;;;;;;;;;5101578;28;20430;-85
2023/01/06 13:35:47;;;;;;;1.87;0.30;;;;;;;;;;5101595;28;20484;-85
2023/01/06 13:38:23;;;;;;;3.30;0.57;;;;;;;;;;5101397;28;20409;-89
2023/01/06 13:40:59;;;;;;;6.20;0.40;;;;;;;;;;5100322;28;20428;-87
2023/01/06 13:43:30;;;;;;;1.03;0.20;;;;;;;;;;5118346;28;20520;-84
2023/01/06 13:46:05;;;;;;;2.87;0.20;;;;;;;;;;5118723;28;20404;-85
2023/01/06 13:48:39;;;;;;;2.10;0.20;;;;;;;;;;5096854;28;20448;-92
2023/01/06 13:51:07;;;;;;;5.37;0.83;;;;;;;;;;5091014;28;20503;-94
2023/01/06 13:53:36;;;;;;;3.20;0.40;;;;;;;;;;5108574;28;20412;-93
2023/01/06 13:56:14;;;;;;;3.80;0.67;;;;;;;;;;5099559;28;20427;-85
2023/01/06 13:58:41;;;;;;;0.70;0.20;;;;;;;;;;5107985;28;20405;-90
2023/01/06 14:01:30;;;;;;;2.47;0.33;;;;;;;;;;5107807;28;20535;-88
2023/01/06 14:04:16;;;;;;;3.37;0.50;;;;;;;;;;5107929;28;20412;-94
2023/01/06 14:06:47;;;;;;;4.77;0.70;;;;;;;;;;5106880;28;20415;-90
2023/01/06 14:09:17;;;;;;;2.97;0.40;;;;;;;;;;5090479;28;20900;-89
2023/01/06 14:11:45;;;;;;;2.43;0.60;;;;;;;;;;5104097;28;20541;-88
2023/01/06 14:14:23;;;;;;;2.40;0.50;;;;;;;;;;5087742;28;20413;-95
2023/01/06 14:16:57;;;;;;;1.17;0.20;;;;;;;;;;5094650;28;20765;-96
2023/01/06 14:19:34;;;;;;;0.70;0.20;;;;;;;;;;5108734;28;20398;-96
2023/01/06 14:22:17;;;;;;;2.97;0.30;;;;;;;;;;5108190;28;20505;-94
2023/01/06 14:24:51;;;;;;;1.13;0.20;;;;;;;;;;5109105;28;20421;-94
2023/01/06 14:27:37;;;;;;;2.30;0.47;;;;;;;;;;5106947;28;20435;-89
2023/01/06 14:30:30;;;;;;;3.63;0.20;;;;;;;;;;5105015;28;20411;-86
2023/01/06 14:33:02;;;;;;;2.97;0.60;;;;;;;;;;5126918;28;20433;-88
2023/01/06 14:35:48;;;;;;;2.00;0.30;;;;;;;;;;5095513;28;20466;-92
2023/01/06 14:38:20;;;;;;;3.80;0.40;;;;;;;;;;5134523;23;20501;-94
2023/01/06 14:40:53;;;;;;;1.97;0.27;;;;;;;;;;5090010;28;20420;-95
2023/01/06 14:43:27;;;;;;;1.63;0.20;;;;;;;;;;5107405;28;20431;-92
2023/01/06 14:45:53;;;;;;;1.53;0.20;;;;;;;;;;5108167;28;20411;-94
2023/01/06 14:48:21;;;;;;;2.50;0.40;;;;;;;;;;5093978;28;20758;-87
2023/01/06 14:50:51;;;;;;;1.53;0.33;;;;;;;;;;5113879;28;20820;-91
2023/01/06 14:53:36;;;;;;;4.03;0.70;;;;;;;;;;5113717;28;20404;-96
2023/01/06 14:56:03;;;;;;;4.07;0.50;;;;;;;;;;5113753;28;20414;-93
2023/01/06 14:58:30;;;;;;;8.13;0.93;;;;;;;;;;5089337;28;20424;-94
2023/01/06 15:00:57;;;;;;;6.70;0.90;;;;;;;;;;5072558;28;20428;-90